sensor_id;sensor_type;location;lat;lon;timestamp;P1;durP1;ratioP1;P2;durP2;ratioP2
73264;SDS011;61493;51.008;14.088;2023-02-03T00:00:11;6.17;;;3.53;;
73264;SDS011;61493;51.008;14.088;2023-02-03T00:02:36;7.23;;;4.00;;
73264;SDS011;61493;51.008;14.088;2023-02-03T00:05:01;14.03;;;3.50;;
73264;SDS011;61493;51.008;14.088;2023-02-03T00:07:27;12.13;;;4.20;;
73264;SDS011;61493;51.008;14.088;2023-02-03T00:09:54;9.63;;;4.17;;
73264;SDS011;61493;51.008;14.088;2023-02-03T00:12:20;9.13;;;3.60;;
73264;SDS011;61493;51.008;14.088;2023-02-03T00:14:45;9.10;;;3.83;;
73264;SDS011;61493;51.008;14.088;2023-02-03T00:17:10;7.37;;;3.30;;
73264;SDS011;61493;51.008;14.088;2023-02-03T00:19:35;10.76;;;3.72;;
73264;SDS011;61493;51.008;14.088;2023-02-03T00:22:01;15.03;;;4.47;;
73264;SDS011;61493;51.008;14.088;2023-02-03T00:24:26;6.76;;;4.00;;
73264;SDS011;61493;51.008;14.088;2023-02-03T00:26:51;11.47;;;4.23;;
73264;SDS011;61493;51.008;14.088;2023-02-03T00:29:16;9.87;;;3.43;;
73264;SDS011;61493;51.008;14.088;2023-02-03T00:31:42;11.33;;;4.67;;
73264;SDS011;61493;51.008;14.088;2023-02-03T00:34:07;9.77;;;4.03;;
73264;SDS011;61493;51.008;14.088;2023-02-03T00:36:33;12.10;;;3.13;;
73264;SDS011;61493;51.008;14.088;2023-02-03T00:38:58;11.27;;;3.90;;
73264;SDS011;61493;51.008;14.088;2023-02-03T00:41:26;11.80;;;4.47;;
73264;SDS011;61493;51.008;14.088;2023-02-03T00:43:53;10.27;;;3.83;;
73264;SDS011;61493;51.008;14.088;2023-02-03T00:46:18;8.70;;;4.10;;
73264;SDS011;61493;51.008;14.088;2023-02-03T00:48:43;10.70;;;4.53;;
73264;SDS011;61493;51.008;14.088;2023-02-03T00:51:08;10.46;;;4.14;;
73264;SDS011;61493;51.008;14.088;2023-02-03T00:53:33;11.27;;;5.03;;
73264;SDS011;61493;51.008;14.088;2023-02-03T00:55:59;8.23;;;4.63;;
73264;SDS011;61493;51.008;14.088;2023-02-03T00:58:24;8.13;;;4.03;;
73264;SDS011;61493;51.008;14.088;2023-02-03T01:00:49;9.73;;;4.53;;
73264;SDS011;61493;51.008;14.088;2023-02-03T01:03:15;11.20;;;5.07;;
73264;SDS011;61493;51.008;14.088;2023-02-03T01:05:40;13.43;;;5.10;;
73264;SDS011;61493;51.008;14.088;2023-02-03T01:08:05;9.40;;;4.64;;
73264;SDS011;61493;51.008;14.088;2023-02-03T01:10:30;10.86;;;4.46;;
73264;SDS011;61493;51.008;14.088;2023-02-03T01:12:55;10.40;;;5.43;;
73264;SDS011;61493;51.008;14.088;2023-02-03T01:15:21;11.50;;;5.37;;
73264;SDS011;61493;51.008;14.088;2023-02-03T01:17:46;13.90;;;5.10;;
73264;SDS011;61493;51.008;14.088;2023-02-03T01:20:11;15.23;;;4.90;;
73264;SDS011;61493;51.008;14.088;2023-02-03T01:22:37;8.47;;;4.13;;
73264;SDS011;61493;51.008;14.088;2023-02-03T01:25:02;13.27;;;5.23;;
73264;SDS011;61493;51.008;14.088;2023-02-03T01:27:28;7.90;;;4.03;;
73264;SDS011;61493;51.008;14.088;2023-02-03T01:29:53;12.90;;;4.27;;
73264;SDS011;61493;51.008;14.088;2023-02-03T01:32:18;7.37;;;3.43;;
73264;SDS011;61493;51.008;14.088;2023-02-03T01:34:43;8.74;;;4.82;;
73264;SDS011;61493;51.008;14.088;2023-02-03T01:37:08;8.43;;;4.60;;
73264;SDS011;61493;51.008;14.088;2023-02-03T01:39:34;9.83;;;3.90;;
73264;SDS011;61493;51.008;14.088;2023-02-03T01:41:59;4.85;;;2.80;;
73264;SDS011;61493;51.008;14.088;2023-02-03T01:44:41;12.60;;;4.67;;
73264;SDS011;61493;51.008;14.088;2023-02-03T01:47:11;7.90;;;4.20;;
73264;SDS011;61493;51.008;14.088;2023-02-03T01:49:38;7.73;;;3.63;;
73264;SDS011;61493;51.008;14.088;2023-02-03T01:52:04;11.33;;;4.40;;
73264;SDS011;61493;51.008;14.088;2023-02-03T01:54:30;8.07;;;4.50;;
73264;SDS011;61493;51.008;14.088;2023-02-03T01:57:00;6.20;;;3.37;;
73264;SDS011;61493;51.008;14.088;2023-02-03T01:59:26;8.07;;;3.97;;
73264;SDS011;61493;51.008;14.088;2023-02-03T02:01:52;9.93;;;4.27;;
73264;SDS011;61493;51.008;14.088;2023-02-03T02:04:18;8.03;;;4.10;;
73264;SDS011;61493;51.008;14.088;2023-02-03T02:06:44;6.00;;;3.27;;
73264;SDS011;61493;51.008;14.088;2023-02-03T02:09:12;7.30;;;3.27;;
73264;SDS011;61493;51.008;14.088;2023-02-03T02:11:37;7.43;;;3.67;;
73264;SDS011;61493;51.008;14.088;2023-02-03T02:14:02;4.53;;;2.63;;
73264;SDS011;61493;51.008;14.088;2023-02-03T02:19:18;6.63;;;3.33;;
73264;SDS011;61493;51.008;14.088;2023-02-03T02:21:53;10.07;;;3.43;;
73264;SDS011;61493;51.008;14.088;2023-02-03T02:24:36;9.40;;;3.47;;
73264;SDS011;61493;51.008;14.088;2023-02-03T02:27:06;7.00;;;3.97;;
73264;SDS011;61493;51.008;14.088;2023-02-03T02:29:44;9.40;;;3.50;;
73264;SDS011;61493;51.008;14.088;2023-02-03T02:32:56;8.40;;;3.00;;
73264;SDS011;61493;51.008;14.088;2023-02-03T02:35:03;6.90;;;2.80;;
73264;SDS011;61493;51.008;14.088;2023-02-03T02:37:43;4.43;;;3.03;;
73264;SDS011;61493;51.008;14.088;2023-02-03T02:42:59;6.97;;;3.07;;
73264;SDS011;61493;51.008;14.088;2023-02-03T02:45:28;4.90;;;2.90;;
73264;SDS011;61493;51.008;14.088;2023-02-03T02:48:04;4.33;;;2.57;;
73264;SDS011;61493;51.008;14.088;2023-02-03T02:50:33;12.77;;;4.10;;
73264;SDS011;61493;51.008;14.088;2023-02-03T02:53:00;9.43;;;2.77;;
73264;SDS011;61493;51.008;14.088;2023-02-03T02:55:26;6.60;;;2.57;;
73264;SDS011;61493;51.008;14.088;2023-02-03T02:57:54;5.83;;;2.53;;
73264;SDS011;61493;51.008;14.088;2023-02-03T03:00:21;4.90;;;2.17;;
73264;SDS011;61493;51.008;14.088;2023-02-03T03:02:46;3.50;;;1.67;;
73264;SDS011;61493;51.008;14.088;2023-02-03T03:05:12;3.47;;;2.07;;
73264;SDS011;61493;51.008;14.088;2023-02-03T03:07:40;4.77;;;2.10;;
73264;SDS011;61493;51.008;14.088;2023-02-03T03:10:08;9.83;;;3.30;;
73264;SDS011;61493;51.008;14.088;2023-02-03T03:12:36;8.00;;;3.07;;
73264;SDS011;61493;51.008;14.088;2023-02-03T03:15:09;7.20;;;3.47;;
73264;SDS011;61493;51.008;14.088;2023-02-03T03:17:43;5.73;;;2.50;;
73264;SDS011;61493;51.008;14.088;2023-02-03T03:20:11;7.30;;;2.47;;
73264;SDS011;61493;51.008;14.088;2023-02-03T03:22:38;11.63;;;4.33;;
73264;SDS011;61493;51.008;14.088;2023-02-03T03:25:09;6.97;;;2.87;;
73264;SDS011;61493;51.008;14.088;2023-02-03T03:27:36;4.80;;;2.90;;
73264;SDS011;61493;51.008;14.088;2023-02-03T03:30:10;7.50;;;3.70;;
73264;SDS011;61493;51.008;14.088;2023-02-03T03:32:36;8.73;;;4.40;;
73264;SDS011;61493;51.008;14.088;2023-02-03T03:35:02;9.57;;;4.50;;
73264;SDS011;61493;51.008;14.088;2023-02-03T03:39:54;8.00;;;5.07;;
73264;SDS011;61493;51.008;14.088;2023-02-03T03:42:27;8.47;;;4.03;;
73264;SDS011;61493;51.008;14.088;2023-02-03T03:49:47;10.45;;;5.40;;
73264;SDS011;61493;51.008;14.088;2023-02-03T03:52:17;10.40;;;5.17;;
73264;SDS011;61493;51.008;14.088;2023-02-03T03:54:44;8.40;;;4.37;;
73264;SDS011;61493;51.008;14.088;2023-02-03T03:59:39;8.43;;;3.30;;
73264;SDS011;61493;51.008;14.088;2023-02-03T04:02:04;13.27;;;8.33;;
73264;SDS011;61493;51.008;14.088;2023-02-03T04:04:30;7.27;;;3.80;;
73264;SDS011;61493;51.008;14.088;2023-02-03T04:06:56;8.20;;;3.93;;
73264;SDS011;61493;51.008;14.088;2023-02-03T04:09:21;11.33;;;4.13;;
73264;SDS011;61493;51.008;14.088;2023-02-03T04:11:46;6.67;;;3.40;;
73264;SDS011;61493;51.008;14.088;2023-02-03T04:14:27;7.33;;;3.07;;
73264;SDS011;61493;51.008;14.088;2023-02-03T04:16:53;5.63;;;2.50;;
73264;SDS011;61493;51.008;14.088;2023-02-03T04:19:19;6.13;;;3.27;;
73264;SDS011;61493;51.008;14.088;2023-02-03T04:21:44;8.10;;;2.70;;
73264;SDS011;61493;51.008;14.088;2023-02-03T04:24:09;6.45;;;2.72;;
73264;SDS011;61493;51.008;14.088;2023-02-03T04:26:35;7.00;;;3.20;;
73264;SDS011;61493;51.008;14.088;2023-02-03T04:29:01;7.17;;;2.67;;
73264;SDS011;61493;51.008;14.088;2023-02-03T04:31:26;5.40;;;2.90;;
73264;SDS011;61493;51.008;14.088;2023-02-03T04:33:51;7.77;;;3.40;;
73264;SDS011;61493;51.008;14.088;2023-02-03T04:36:16;6.62;;;3.36;;
73264;SDS011;61493;51.008;14.088;2023-02-03T04:38:42;7.97;;;3.20;;
73264;SDS011;61493;51.008;14.088;2023-02-03T04:41:07;7.13;;;3.70;;
73264;SDS011;61493;51.008;14.088;2023-02-03T04:43:32;6.73;;;3.17;;
73264;SDS011;61493;51.008;14.088;2023-02-03T04:46:00;7.50;;;2.86;;
73264;SDS011;61493;51.008;14.088;2023-02-03T04:48:25;14.87;;;3.30;;
73264;SDS011;61493;51.008;14.088;2023-02-03T04:50:51;5.73;;;2.63;;
73264;SDS011;61493;51.008;14.088;2023-02-03T04:53:16;5.93;;;2.73;;
73264;SDS011;61493;51.008;14.088;2023-02-03T04:55:44;7.20;;;3.40;;
73264;SDS011;61493;51.008;14.088;2023-02-03T04:58:10;7.70;;;3.60;;
73264;SDS011;61493;51.008;14.088;2023-02-03T05:00:35;7.26;;;2.84;;
73264;SDS011;61493;51.008;14.088;2023-02-03T05:03:00;11.34;;;4.76;;
73264;SDS011;61493;51.008;14.088;2023-02-03T05:05:25;10.07;;;4.53;;
73264;SDS011;61493;51.008;14.088;2023-02-03T05:07:50;9.93;;;3.97;;
73264;SDS011;61493;51.008;14.088;2023-02-03T05:10:15;10.60;;;4.53;;
73264;SDS011;61493;51.008;14.088;2023-02-03T05:12:40;9.26;;;4.50;;
73264;SDS011;61493;51.008;14.088;2023-02-03T05:15:06;9.37;;;4.60;;
73264;SDS011;61493;51.008;14.088;2023-02-03T05:17:31;9.70;;;3.90;;
73264;SDS011;61493;51.008;14.088;2023-02-03T05:19:56;11.97;;;5.50;;
73264;SDS011;61493;51.008;14.088;2023-02-03T05:22:21;11.66;;;4.84;;
73264;SDS011;61493;51.008;14.088;2023-02-03T05:24:46;11.24;;;5.72;;
73264;SDS011;61493;51.008;14.088;2023-02-03T05:27:12;14.48;;;6.72;;
73264;SDS011;61493;51.008;14.088;2023-02-03T05:29:37;10.10;;;5.25;;
73264;SDS011;61493;51.008;14.088;2023-02-03T05:32:02;9.02;;;4.53;;
73264;SDS011;61493;51.008;14.088;2023-02-03T05:34:27;11.65;;;6.13;;
73264;SDS011;61493;51.008;14.088;2023-02-03T05:36:52;14.02;;;5.92;;
73264;SDS011;61493;51.008;14.088;2023-02-03T05:39:17;11.86;;;6.12;;
73264;SDS011;61493;51.008;14.088;2023-02-03T05:41:43;9.75;;;5.07;;
73264;SDS011;61493;51.008;14.088;2023-02-03T05:44:18;9.93;;;5.07;;
73264;SDS011;61493;51.008;14.088;2023-02-03T05:46:43;12.25;;;5.88;;
73264;SDS011;61493;51.008;14.088;2023-02-03T05:49:08;12.40;;;5.60;;
73264;SDS011;61493;51.008;14.088;2023-02-03T05:51:33;17.28;;;5.68;;
73264;SDS011;61493;51.008;14.088;2023-02-03T05:53:58;8.57;;;4.95;;
73264;SDS011;61493;51.008;14.088;2023-02-03T05:56:24;13.10;;;5.97;;
73264;SDS011;61493;51.008;14.088;2023-02-03T05:58:49;14.30;;;7.00;;
73264;SDS011;61493;51.008;14.088;2023-02-03T06:01:17;14.82;;;7.63;;
73264;SDS011;61493;51.008;14.088;2023-02-03T06:03:43;13.48;;;6.22;;
73264;SDS011;61493;51.008;14.088;2023-02-03T06:06:08;11.16;;;5.28;;
73264;SDS011;61493;51.008;14.088;2023-02-03T06:08:33;13.85;;;6.97;;
73264;SDS011;61493;51.008;14.088;2023-02-03T06:10:58;12.23;;;6.43;;
73264;SDS011;61493;51.008;14.088;2023-02-03T06:13:27;13.95;;;6.32;;
73264;SDS011;61493;51.008;14.088;2023-02-03T06:15:52;14.50;;;6.63;;
73264;SDS011;61493;51.008;14.088;2023-02-03T06:18:18;12.43;;;6.68;;
73264;SDS011;61493;51.008;14.088;2023-02-03T06:20:43;13.38;;;6.40;;
73264;SDS011;61493;51.008;14.088;2023-02-03T06:23:08;11.18;;;6.18;;
73264;SDS011;61493;51.008;14.088;2023-02-03T06:25:34;11.80;;;5.45;;
73264;SDS011;61493;51.008;14.088;2023-02-03T06:27:59;10.30;;;5.70;;
73264;SDS011;61493;51.008;14.088;2023-02-03T06:30:24;11.23;;;6.15;;
73264;SDS011;61493;51.008;14.088;2023-02-03T06:32:49;12.70;;;6.53;;
73264;SDS011;61493;51.008;14.088;2023-02-03T06:35:15;11.57;;;5.65;;
73264;SDS011;61493;51.008;14.088;2023-02-03T06:37:41;10.82;;;5.75;;
73264;SDS011;61493;51.008;14.088;2023-02-03T06:40:06;12.20;;;5.88;;
73264;SDS011;61493;51.008;14.088;2023-02-03T06:42:31;12.07;;;5.88;;
73264;SDS011;61493;51.008;14.088;2023-02-03T06:44:57;10.35;;;5.40;;
73264;SDS011;61493;51.008;14.088;2023-02-03T06:47:22;11.10;;;5.22;;
73264;SDS011;61493;51.008;14.088;2023-02-03T06:49:47;9.85;;;5.03;;
73264;SDS011;61493;51.008;14.088;2023-02-03T06:52:12;10.73;;;5.97;;
73264;SDS011;61493;51.008;14.088;2023-02-03T06:54:39;9.23;;;4.55;;
73264;SDS011;61493;51.008;14.088;2023-02-03T06:57:04;13.63;;;5.63;;
73264;SDS011;61493;51.008;14.088;2023-02-03T06:59:29;8.00;;;4.18;;
73264;SDS011;61493;51.008;14.088;2023-02-03T07:01:54;7.93;;;4.57;;
73264;SDS011;61493;51.008;14.088;2023-02-03T07:04:23;10.60;;;5.00;;
73264;SDS011;61493;51.008;14.088;2023-02-03T07:06:49;11.77;;;6.22;;
73264;SDS011;61493;51.008;14.088;2023-02-03T07:09:14;11.70;;;4.93;;
73264;SDS011;61493;51.008;14.088;2023-02-03T07:11:40;11.00;;;5.28;;
73264;SDS011;61493;51.008;14.088;2023-02-03T07:14:05;11.68;;;5.06;;
73264;SDS011;61493;51.008;14.088;2023-02-03T07:16:30;9.93;;;5.30;;
73264;SDS011;61493;51.008;14.088;2023-02-03T07:18:56;8.45;;;4.95;;
73264;SDS011;61493;51.008;14.088;2023-02-03T07:21:21;9.70;;;4.88;;
73264;SDS011;61493;51.008;14.088;2023-02-03T07:23:47;10.60;;;4.68;;
73264;SDS011;61493;51.008;14.088;2023-02-03T07:26:12;10.18;;;5.40;;
73264;SDS011;61493;51.008;14.088;2023-02-03T07:28:37;8.88;;;4.75;;
73264;SDS011;61493;51.008;14.088;2023-02-03T07:31:03;8.18;;;4.15;;
73264;SDS011;61493;51.008;14.088;2023-02-03T07:33:34;10.10;;;4.80;;
73264;SDS011;61493;51.008;14.088;2023-02-03T07:36:05;12.45;;;5.50;;
73264;SDS011;61493;51.008;14.088;2023-02-03T07:38:45;10.80;;;4.05;;
73264;SDS011;61493;51.008;14.088;2023-02-03T07:41:10;9.16;;;4.06;;
73264;SDS011;61493;51.008;14.088;2023-02-03T07:43:35;8.74;;;4.52;;
73264;SDS011;61493;51.008;14.088;2023-02-03T07:46:00;10.18;;;4.70;;
73264;SDS011;61493;51.008;14.088;2023-02-03T07:48:26;8.60;;;4.65;;
73264;SDS011;61493;51.008;14.088;2023-02-03T07:50:51;7.45;;;4.18;;
73264;SDS011;61493;51.008;14.088;2023-02-03T07:53:16;9.35;;;5.00;;
73264;SDS011;61493;51.008;14.088;2023-02-03T07:55:42;11.35;;;5.95;;
73264;SDS011;61493;51.008;14.088;2023-02-03T07:58:07;10.77;;;4.80;;
73264;SDS011;61493;51.008;14.088;2023-02-03T08:00:32;9.68;;;5.15;;
73264;SDS011;61493;51.008;14.088;2023-02-03T08:02:57;7.50;;;4.25;;
73264;SDS011;61493;51.008;14.088;2023-02-03T08:05:22;11.10;;;4.65;;
73264;SDS011;61493;51.008;14.088;2023-02-03T08:07:48;7.12;;;3.82;;
73264;SDS011;61493;51.008;14.088;2023-02-03T08:10:14;7.34;;;4.52;;
73264;SDS011;61493;51.008;14.088;2023-02-03T08:12:42;7.35;;;3.17;;
73264;SDS011;61493;51.008;14.088;2023-02-03T08:15:08;8.55;;;3.35;;
73264;SDS011;61493;51.008;14.088;2023-02-03T08:17:33;7.13;;;3.70;;
73264;SDS011;61493;51.008;14.088;2023-02-03T08:19:59;6.35;;;3.50;;
73264;SDS011;61493;51.008;14.088;2023-02-03T08:22:24;7.50;;;3.28;;
73264;SDS011;61493;51.008;14.088;2023-02-03T08:24:49;7.40;;;4.35;;
73264;SDS011;61493;51.008;14.088;2023-02-03T08:27:15;9.16;;;4.22;;
73264;SDS011;61493;51.008;14.088;2023-02-03T08:29:41;5.38;;;3.33;;
73264;SDS011;61493;51.008;14.088;2023-02-03T08:32:25;6.47;;;3.85;;
73264;SDS011;61493;51.008;14.088;2023-02-03T08:34:51;6.53;;;3.85;;
73264;SDS011;61493;51.008;14.088;2023-02-03T08:37:17;7.53;;;3.20;;
73264;SDS011;61493;51.008;14.088;2023-02-03T08:39:43;4.82;;;2.83;;
73264;SDS011;61493;51.008;14.088;2023-02-03T08:42:09;8.68;;;3.33;;
73264;SDS011;61493;51.008;14.088;2023-02-03T08:44:36;8.43;;;3.67;;
73264;SDS011;61493;51.008;14.088;2023-02-03T08:47:03;6.72;;;3.47;;
73264;SDS011;61493;51.008;14.088;2023-02-03T08:49:31;5.57;;;3.17;;
73264;SDS011;61493;51.008;14.088;2023-02-03T08:51:57;18.67;;;8.10;;
73264;SDS011;61493;51.008;14.088;2023-02-03T08:54:22;16.48;;;5.63;;
73264;SDS011;61493;51.008;14.088;2023-02-03T08:56:48;5.47;;;3.22;;
73264;SDS011;61493;51.008;14.088;2023-02-03T08:59:13;5.35;;;2.65;;
73264;SDS011;61493;51.008;14.088;2023-02-03T09:01:39;7.55;;;3.05;;
73264;SDS011;61493;51.008;14.088;2023-02-03T09:04:04;6.07;;;3.08;;
73264;SDS011;61493;51.008;14.088;2023-02-03T09:06:32;6.97;;;3.25;;
73264;SDS011;61493;51.008;14.088;2023-02-03T09:08:58;5.50;;;3.17;;
73264;SDS011;61493;51.008;14.088;2023-02-03T09:11:23;8.05;;;2.78;;
73264;SDS011;61493;51.008;14.088;2023-02-03T09:13:48;6.64;;;3.06;;
73264;SDS011;61493;51.008;14.088;2023-02-03T09:16:14;5.70;;;2.60;;
73264;SDS011;61493;51.008;14.088;2023-02-03T09:18:43;5.03;;;2.75;;
73264;SDS011;61493;51.008;14.088;2023-02-03T09:21:09;5.30;;;2.67;;
73264;SDS011;61493;51.008;14.088;2023-02-03T09:23:38;4.97;;;2.88;;
73264;SDS011;61493;51.008;14.088;2023-02-03T09:26:04;4.60;;;2.80;;
73264;SDS011;61493;51.008;14.088;2023-02-03T09:28:29;7.05;;;3.05;;
73264;SDS011;61493;51.008;14.088;2023-02-03T09:30:58;6.60;;;2.85;;
73264;SDS011;61493;51.008;14.088;2023-02-03T09:33:23;4.65;;;3.33;;
73264;SDS011;61493;51.008;14.088;2023-02-03T09:35:52;5.82;;;2.90;;
73264;SDS011;61493;51.008;14.088;2023-02-03T09:38:17;5.63;;;2.30;;
73264;SDS011;61493;51.008;14.088;2023-02-03T09:40:42;5.10;;;2.47;;
73264;SDS011;61493;51.008;14.088;2023-02-03T09:43:13;7.35;;;3.10;;
73264;SDS011;61493;51.008;14.088;2023-02-03T09:45:42;5.10;;;3.30;;
73264;SDS011;61493;51.008;14.088;2023-02-03T09:48:10;7.50;;;3.22;;
73264;SDS011;61493;51.008;14.088;2023-02-03T09:50:37;6.63;;;3.17;;
73264;SDS011;61493;51.008;14.088;2023-02-03T09:53:05;7.10;;;3.28;;
73264;SDS011;61493;51.008;14.088;2023-02-03T09:55:39;5.15;;;2.67;;
73264;SDS011;61493;51.008;14.088;2023-02-03T09:58:31;7.38;;;3.15;;
73264;SDS011;61493;51.008;14.088;2023-02-03T10:01:02;6.65;;;2.95;;
73264;SDS011;61493;51.008;14.088;2023-02-03T10:08:49;5.45;;;3.00;;
73264;SDS011;61493;51.008;14.088;2023-02-03T10:11:26;7.25;;;3.60;;
73264;SDS011;61493;51.008;14.088;2023-02-03T10:14:17;8.45;;;3.33;;
73264;SDS011;61493;51.008;14.088;2023-02-03T10:16:47;8.40;;;4.00;;
73264;SDS011;61493;51.008;14.088;2023-02-03T10:19:17;5.15;;;3.13;;
73264;SDS011;61493;51.008;14.088;2023-02-03T10:21:49;6.13;;;3.40;;
73264;SDS011;61493;51.008;14.088;2023-02-03T10:24:19;5.60;;;2.88;;
73264;SDS011;61493;51.008;14.088;2023-02-03T10:26:45;7.85;;;4.03;;
73264;SDS011;61493;51.008;14.088;2023-02-03T10:29:24;10.70;;;3.90;;
73264;SDS011;61493;51.008;14.088;2023-02-03T10:31:53;7.00;;;3.83;;
73264;SDS011;61493;51.008;14.088;2023-02-03T10:34:18;8.57;;;3.88;;
73264;SDS011;61493;51.008;14.088;2023-02-03T10:39:20;6.63;;;3.33;;
73264;SDS011;61493;51.008;14.088;2023-02-03T10:41:48;6.95;;;3.15;;
73264;SDS011;61493;51.008;14.088;2023-02-03T10:44:14;5.63;;;3.20;;
73264;SDS011;61493;51.008;14.088;2023-02-03T10:46:39;5.97;;;3.17;;
73264;SDS011;61493;51.008;14.088;2023-02-03T10:49:06;8.57;;;3.67;;
73264;SDS011;61493;51.008;14.088;2023-02-03T10:51:36;5.43;;;3.05;;
73264;SDS011;61493;51.008;14.088;2023-02-03T10:54:01;7.43;;;3.58;;
73264;SDS011;61493;51.008;14.088;2023-02-03T10:56:36;5.30;;;3.22;;
73264;SDS011;61493;51.008;14.088;2023-02-03T10:59:02;6.63;;;4.00;;
73264;SDS011;61493;51.008;14.088;2023-02-03T11:01:37;5.82;;;3.40;;
73264;SDS011;61493;51.008;14.088;2023-02-03T11:04:04;9.63;;;3.58;;
73264;SDS011;61493;51.008;14.088;2023-02-03T11:06:29;6.10;;;3.25;;
73264;SDS011;61493;51.008;14.088;2023-02-03T11:08:55;10.52;;;4.63;;
73264;SDS011;61493;51.008;14.088;2023-02-03T11:13:53;10.93;;;4.00;;
73264;SDS011;61493;51.008;14.088;2023-02-03T11:16:18;5.95;;;3.53;;
73264;SDS011;61493;51.008;14.088;2023-02-03T11:21:24;6.65;;;3.25;;
73264;SDS011;61493;51.008;14.088;2023-02-03T11:27:02;8.75;;;4.22;;
73264;SDS011;61493;51.008;14.088;2023-02-03T11:29:13;5.18;;;2.90;;
73264;SDS011;61493;51.008;14.088;2023-02-03T11:31:38;6.95;;;3.03;;
73264;SDS011;61493;51.008;14.088;2023-02-03T11:34:05;7.95;;;3.45;;
73264;SDS011;61493;51.008;14.088;2023-02-03T11:36:32;5.60;;;3.45;;
73264;SDS011;61493;51.008;14.088;2023-02-03T11:39:41;6.45;;;2.95;;
73264;SDS011;61493;51.008;14.088;2023-02-03T11:41:47;8.57;;;3.28;;
73264;SDS011;61493;51.008;14.088;2023-02-03T11:44:20;5.97;;;2.63;;
73264;SDS011;61493;51.008;14.088;2023-02-03T11:46:46;6.30;;;3.60;;
73264;SDS011;61493;51.008;14.088;2023-02-03T11:49:20;7.72;;;3.28;;
73264;SDS011;61493;51.008;14.088;2023-02-03T11:59:18;5.00;;;2.80;;
73264;SDS011;61493;51.008;14.088;2023-02-03T12:07:01;3.08;;;1.92;;
73264;SDS011;61493;51.008;14.088;2023-02-03T12:14:40;4.10;;;2.04;;
73264;SDS011;61493;51.008;14.088;2023-02-03T12:22:29;4.05;;;2.38;;
73264;SDS011;61493;51.008;14.088;2023-02-03T12:24:59;3.38;;;1.80;;
73264;SDS011;61493;51.008;14.088;2023-02-03T12:27:40;2.58;;;1.60;;
73264;SDS011;61493;51.008;14.088;2023-02-03T12:30:17;3.03;;;1.70;;
73264;SDS011;61493;51.008;14.088;2023-02-03T12:32:47;2.60;;;1.75;;
73264;SDS011;61493;51.008;14.088;2023-02-03T12:35:16;2.88;;;1.50;;
73264;SDS011;61493;51.008;14.088;2023-02-03T12:45:33;3.47;;;1.50;;
73264;SDS011;61493;51.008;14.088;2023-02-03T12:48:05;1.63;;;1.15;;
73264;SDS011;61493;51.008;14.088;2023-02-03T12:53:19;2.35;;;1.30;;
73264;SDS011;61493;51.008;14.088;2023-02-03T12:55:58;2.38;;;1.50;;
73264;SDS011;61493;51.008;14.088;2023-02-03T13:03:27;11.38;;;2.30;;
73264;SDS011;61493;51.008;14.088;2023-02-03T13:06:03;4.18;;;1.48;;
73264;SDS011;61493;51.008;14.088;2023-02-03T13:08:31;1.85;;;1.45;;
73264;SDS011;61493;51.008;14.088;2023-02-03T13:11:02;3.65;;;2.03;;
73264;SDS011;61493;51.008;14.088;2023-02-03T13:13:35;5.03;;;1.90;;
73264;SDS011;61493;51.008;14.088;2023-02-03T13:16:04;4.30;;;2.13;;
73264;SDS011;61493;51.008;14.088;2023-02-03T13:18:41;3.40;;;1.85;;
73264;SDS011;61493;51.008;14.088;2023-02-03T13:21:09;3.70;;;1.75;;
73264;SDS011;61493;51.008;14.088;2023-02-03T13:23:34;1.45;;;0.77;;
73264;SDS011;61493;51.008;14.088;2023-02-03T13:28:38;3.72;;;1.35;;
73264;SDS011;61493;51.008;14.088;2023-02-03T13:31:19;3.67;;;1.40;;
73264;SDS011;61493;51.008;14.088;2023-02-03T13:41:25;4.32;;;1.50;;
73264;SDS011;61493;51.008;14.088;2023-02-03T13:43:52;4.18;;;1.60;;
73264;SDS011;61493;51.008;14.088;2023-02-03T13:46:20;11.50;;;1.48;;
73264;SDS011;61493;51.008;14.088;2023-02-03T13:48:47;6.18;;;1.65;;
73264;SDS011;61493;51.008;14.088;2023-02-03T13:51:13;2.90;;;1.27;;
73264;SDS011;61493;51.008;14.088;2023-02-03T13:53:40;4.63;;;1.50;;
73264;SDS011;61493;51.008;14.088;2023-02-03T13:56:07;6.45;;;1.95;;
73264;SDS011;61493;51.008;14.088;2023-02-03T13:58:39;5.75;;;1.40;;
73264;SDS011;61493;51.008;14.088;2023-02-03T14:06:01;6.03;;;1.45;;
73264;SDS011;61493;51.008;14.088;2023-02-03T14:13:36;7.32;;;1.45;;
73264;SDS011;61493;51.008;14.088;2023-02-03T14:18:45;10.57;;;1.73;;
73264;SDS011;61493;51.008;14.088;2023-02-03T14:21:15;5.90;;;1.08;;
73264;SDS011;61493;51.008;14.088;2023-02-03T14:23:45;8.40;;;1.33;;
73264;SDS011;61493;51.008;14.088;2023-02-03T14:26:23;10.48;;;1.30;;
73264;SDS011;61493;51.008;14.088;2023-02-03T14:28:49;9.43;;;1.65;;
73264;SDS011;61493;51.008;14.088;2023-02-03T14:31:17;7.53;;;2.08;;
73264;SDS011;61493;51.008;14.088;2023-02-03T14:33:44;8.57;;;1.65;;
73264;SDS011;61493;51.008;14.088;2023-02-03T14:36:24;5.88;;;1.45;;
73264;SDS011;61493;51.008;14.088;2023-02-03T14:38:50;3.83;;;1.40;;
73264;SDS011;61493;51.008;14.088;2023-02-03T14:41:16;6.63;;;1.42;;
73264;SDS011;61493;51.008;14.088;2023-02-03T14:43:44;9.90;;;2.42;;
73264;SDS011;61493;51.008;14.088;2023-02-03T14:46:20;7.65;;;1.42;;
73264;SDS011;61493;51.008;14.088;2023-02-03T14:51:32;5.00;;;1.98;;
73264;SDS011;61493;51.008;14.088;2023-02-03T14:59:46;6.28;;;1.52;;
73264;SDS011;61493;51.008;14.088;2023-02-03T15:02:16;5.30;;;1.60;;
73264;SDS011;61493;51.008;14.088;2023-02-03T15:04:43;6.38;;;1.92;;
73264;SDS011;61493;51.008;14.088;2023-02-03T15:07:26;8.40;;;2.03;;
73264;SDS011;61493;51.008;14.088;2023-02-03T15:09:54;6.50;;;1.27;;
73264;SDS011;61493;51.008;14.088;2023-02-03T15:12:24;5.70;;;1.40;;
73264;SDS011;61493;51.008;14.088;2023-02-03T15:14:50;8.60;;;2.13;;
73264;SDS011;61493;51.008;14.088;2023-02-03T15:17:27;7.90;;;1.92;;
73264;SDS011;61493;51.008;14.088;2023-02-03T15:19:54;11.50;;;2.00;;
73264;SDS011;61493;51.008;14.088;2023-02-03T15:22:27;12.70;;;2.33;;
73264;SDS011;61493;51.008;14.088;2023-02-03T15:24:59;6.43;;;1.40;;
73264;SDS011;61493;51.008;14.088;2023-02-03T15:27:31;6.30;;;1.63;;
73264;SDS011;61493;51.008;14.088;2023-02-03T15:29:57;7.05;;;2.00;;
73264;SDS011;61493;51.008;14.088;2023-02-03T15:34:54;7.45;;;1.63;;
73264;SDS011;61493;51.008;14.088;2023-02-03T15:37:32;4.75;;;1.75;;
73264;SDS011;61493;51.008;14.088;2023-02-03T15:40:01;11.35;;;2.75;;
73264;SDS011;61493;51.008;14.088;2023-02-03T15:42:47;5.50;;;1.33;;
73264;SDS011;61493;51.008;14.088;2023-02-03T15:50:41;10.25;;;1.77;;
73264;SDS011;61493;51.008;14.088;2023-02-03T15:53:15;6.82;;;2.15;;
73264;SDS011;61493;51.008;14.088;2023-02-03T15:55:49;3.58;;;1.40;;
73264;SDS011;61493;51.008;14.088;2023-02-03T15:58:17;5.75;;;1.88;;
73264;SDS011;61493;51.008;14.088;2023-02-03T16:00:46;12.10;;;2.22;;
73264;SDS011;61493;51.008;14.088;2023-02-03T16:03:20;12.40;;;1.63;;
73264;SDS011;61493;51.008;14.088;2023-02-03T16:05:46;9.43;;;1.42;;
73264;SDS011;61493;51.008;14.088;2023-02-03T16:08:24;4.85;;;1.42;;
73264;SDS011;61493;51.008;14.088;2023-02-03T16:10:51;10.60;;;2.40;;
73264;SDS011;61493;51.008;14.088;2023-02-03T16:15:41;6.72;;;1.96;;
73264;SDS011;61493;51.008;14.088;2023-02-03T16:18:16;4.93;;;2.30;;
73264;SDS011;61493;51.008;14.088;2023-02-03T16:20:48;5.60;;;1.52;;
73264;SDS011;61493;51.008;14.088;2023-02-03T16:23:18;17.30;;;2.55;;
73264;SDS011;61493;51.008;14.088;2023-02-03T16:25:43;3.63;;;1.65;;